createdAt,value
2023-12-29T00:02:54.864Z,88.05
2023-12-29T00:06:14.859Z,88.07
2023-12-29T00:09:47.608Z,88.62
2023-12-29T00:13:11.810Z,87.94
2023-12-29T00:16:32.860Z,87.53
2023-12-29T00:19:35.967Z,88.08
2023-12-29T00:22:41.637Z,88.14
2023-12-29T00:25:53.104Z,88.46
2023-12-29T00:29:00.544Z,88.81
2023-12-29T00:32:14.076Z,89.38
2023-12-29T00:35:30.236Z,89.09
2023-12-29T00:38:35.670Z,86.87
2023-12-29T00:41:52.109Z,86.78
2023-12-29T00:45:14.524Z,87.27
2023-12-29T00:48:17.974Z,87.62
2023-12-29T00:51:21.580Z,87.24
2023-12-29T00:54:30.146Z,87.49
2023-12-29T00:57:53.621Z,86.94
2023-12-29T01:01:19.696Z,87.84
2023-12-29T01:04:37.010Z,86.53
2023-12-29T01:07:52.855Z,86.21
2023-12-29T01:11:11.985Z,86.61
2023-12-29T01:14:22.056Z,87.81
2023-12-29T01:17:28.830Z,88.21
2023-12-29T01:20:32.458Z,87.92
2023-12-29T01:23:35.889Z,87.44
2023-12-29T01:26:45.496Z,87.01
2023-12-29T01:29:54.059Z,89.15
2023-12-29T01:33:17.602Z,88.58
2023-12-29T01:36:35.019Z,88.05
2023-12-29T01:39:38.282Z,87.48
2023-12-29T01:42:50.120Z,88.79
2023-12-29T01:45:58.238Z,87.57
2023-12-29T01:49:11.723Z,89.52
2023-12-29T01:52:33.528Z,89.26
2023-12-29T01:55:48.302Z,87.94
2023-12-29T01:59:14.947Z,88.36
2023-12-29T02:02:32.645Z,87.23
2023-12-29T02:05:47.856Z,87.79
2023-12-29T02:09:05.675Z,87.42
2023-12-29T02:12:26.434Z,87.23
2023-12-29T02:15:50.647Z,87.39
2023-12-29T02:18:58.718Z,87.24
2023-12-29T02:22:02.631Z,87.01
2023-12-29T02:25:20.305Z,87.31
2023-12-29T02:28:37.573Z,88.47
2023-12-29T02:31:44.947Z,87.61
2023-12-29T02:34:54.859Z,89.74
2023-12-29T02:38:00.203Z,88.64
2023-12-29T02:41:09.989Z,88.72
2023-12-29T02:44:28.870Z,87.52
2023-12-29T02:47:37.901Z,87.11
2023-12-29T02:50:41.760Z,86.48
2023-12-29T02:53:56.309Z,86.18
2023-12-29T02:57:12.385Z,87.46
2023-12-29T03:00:38.218Z,87.56
2023-12-29T03:03:56.176Z,88.03
2023-12-29T03:07:19.360Z,88.36
2023-12-29T03:10:42.275Z,87.49
2023-12-29T03:14:04.675Z,87.41
2023-12-29T03:17:23.306Z,87.24
2023-12-29T03:20:50.411Z,87.54
2023-12-29T03:24:09.254Z,87.93
2023-12-29T03:27:29.500Z,86.91
2023-12-29T03:30:38.336Z,87.51
2023-12-29T03:34:01.398Z,86.42
2023-12-29T03:37:24.307Z,85.81
2023-12-29T03:40:49.278Z,86.65
2023-12-29T03:44:15.612Z,87.33
2023-12-29T03:47:37.379Z,87.87
2023-12-29T03:50:41.722Z,87.05
2023-12-29T03:53:51.204Z,86.72
2023-12-29T03:56:55.440Z,85.89
2023-12-29T03:59:58.274Z,87.47
2023-12-29T04:03:02.212Z,88.48
2023-12-29T04:06:11.351Z,87.25
2023-12-29T04:09:21.914Z,87.41
2023-12-29T04:12:37.023Z,86.35
2023-12-29T04:16:00.284Z,88.42
2023-12-29T04:19:20.787Z,87.27
2023-12-29T04:22:45.235Z,87.15
2023-12-29T04:26:10.304Z,88.09
2023-12-29T04:29:25.122Z,89.85
2023-12-29T04:32:48.124Z,90.61
2023-12-29T04:36:13.128Z,90.63
2023-12-29T04:39:22.596Z,90.65
2023-12-29T04:42:26.815Z,90.54
2023-12-29T04:45:33.705Z,90.38
2023-12-29T04:48:43.532Z,91.19
2023-12-29T04:52:03.160Z,90.92
2023-12-29T04:55:07.927Z,91.62
2023-12-29T04:58:11.401Z,91.81
2023-12-29T05:01:28.135Z,91.15
2023-12-29T05:04:51.185Z,91.13
2023-12-29T05:08:00.934Z,90.91
2023-12-29T05:11:10.522Z,91.80
2023-12-29T05:14:21.410Z,91.67
2023-12-29T05:17:38.635Z,91.96
2023-12-29T05:21:03.223Z,91.44
2023-12-29T05:24:20.142Z,90.47
2023-12-29T05:27:37.506Z,90.84
2023-12-29T05:30:55.337Z,90.06
2023-12-29T05:34:19.958Z,90.74
2023-12-29T05:37:44.975Z,91.28
2023-12-29T05:40:54.846Z,90.76
2023-12-29T05:44:02.379Z,90.38
2023-12-29T05:47:10.981Z,91.08
2023-12-29T05:50:22.405Z,90.11
2023-12-29T05:53:25.651Z,91.07
2023-12-29T05:56:42.360Z,90.18
2023-12-29T05:59:59.979Z,90.11
2023-12-29T06:03:18.274Z,90.51
2023-12-29T06:06:42.079Z,89.67
2023-12-29T06:10:32.705Z,89.86
2023-12-29T06:13:37.425Z,89.94
2023-12-29T06:17:00.154Z,89.88
2023-12-29T06:20:22.218Z,91.25
2023-12-29T06:23:36.508Z,90.18
2023-12-29T06:26:55.941Z,90.85
2023-12-29T06:30:19.201Z,90.81
2023-12-29T06:33:34.884Z,91.42
2023-12-29T06:36:42.259Z,91.15
2023-12-29T06:39:46.457Z,91.08
2023-12-29T06:42:58.476Z,90.84
2023-12-29T06:46:21.868Z,91.19
2023-12-29T06:49:39.583Z,90.09
2023-12-29T06:53:05.879Z,91.13
2023-12-29T06:56:31.779Z,91.08
2023-12-29T07:00:00.492Z,90.52
2023-12-29T07:03:21.729Z,91.02
2023-12-29T07:06:31.650Z,91.59
2023-12-29T07:09:44.428Z,91.72
2023-12-29T07:12:49.368Z,91.59
2023-12-29T07:16:02.414Z,90.81
2023-12-29T07:19:09.947Z,89.91
2023-12-29T07:22:20.767Z,90.18
2023-12-29T07:25:24.196Z,90.55
2023-12-29T07:28:35.708Z,90.52
2023-12-29T07:32:01.669Z,90.47
2023-12-29T07:35:11.928Z,89.98
2023-12-29T07:38:28.736Z,90.19
2023-12-29T07:42:07.810Z,90.95
2023-12-29T07:45:26.170Z,91.84
2023-12-29T07:48:43.420Z,92.26
2023-12-29T07:52:08.738Z,92.52
2023-12-29T07:55:32.576Z,92.59
2023-12-29T07:58:44.830Z,91.88
2023-12-29T08:02:08.540Z,90.54
2023-12-29T08:05:26.416Z,90.49
2023-12-29T08:08:29.801Z,90.08
2023-12-29T08:11:33.318Z,89.41
2023-12-29T08:14:52.677Z,89.23
2023-12-29T08:18:22.544Z,88.90
2023-12-29T08:21:39.363Z,88.47
2023-12-29T08:25:02.630Z,89.73
2023-12-29T08:28:27.602Z,88.93
2023-12-29T08:31:42.302Z,88.07
2023-12-29T08:34:48.821Z,88.36
2023-12-29T08:38:02.860Z,88.21
2023-12-29T08:41:23.619Z,88.09
2023-12-29T08:44:44.707Z,87.98
2023-12-29T08:48:05.544Z,90.21
2023-12-29T08:51:10.096Z,88.92
2023-12-29T08:54:20.975Z,87.30
2023-12-29T08:57:25.473Z,87.99
2023-12-29T09:00:33.219Z,88.76
2023-12-29T09:03:40.439Z,87.26
2023-12-29T09:06:57.548Z,87.17
2023-12-29T09:10:19.560Z,87.19
2023-12-29T09:13:27.729Z,86.07
2023-12-29T09:16:31.727Z,85.74
2023-12-29T09:20:04.345Z,85.69
2023-12-29T09:23:21.378Z,86.18
2023-12-29T09:26:37.591Z,84.69
2023-12-29T09:29:58.277Z,82.70
2023-12-29T09:33:08.440Z,83.50
2023-12-29T09:36:35.380Z,84.40
2023-12-29T09:39:55.551Z,84.03
2023-12-29T09:43:13.304Z,81.93
2023-12-29T09:46:50.289Z,81.24
2023-12-29T09:50:11.381Z,82.02
2023-12-29T09:53:34.290Z,83.02
2023-12-29T09:56:39.471Z,83.27
2023-12-29T09:59:54.067Z,83.72
2023-12-29T10:03:05.245Z,83.26
2023-12-29T10:06:22.916Z,82.38
2023-12-29T10:09:36.052Z,82.55
2023-12-29T10:12:56.712Z,82.94
2023-12-29T10:16:50.245Z,82.92
2023-12-29T10:20:31.331Z,82.40
2023-12-29T10:23:55.295Z,82.64
2023-12-29T10:27:15.301Z,82.33
2023-12-29T10:30:37.462Z,81.81
2023-12-29T10:33:58.281Z,82.04
2023-12-29T10:37:21.347Z,81.46
2023-12-29T10:40:41.105Z,81.36
2023-12-29T10:44:00.207Z,81.16
2023-12-29T10:47:16.400Z,81.12
2023-12-29T10:50:40.218Z,80.89
2023-12-29T10:54:00.225Z,81.43
2023-12-29T10:57:28.281Z,81.23
2023-12-29T11:00:45.273Z,80.86
2023-12-29T11:04:07.387Z,80.95
2023-12-29T11:07:27.111Z,81.70
2023-12-29T11:10:50.269Z,81.04
2023-12-29T11:14:08.101Z,81.45
2023-12-29T11:17:13.766Z,82.33
2023-12-29T11:20:21.762Z,82.69
2023-12-29T11:27:18.049Z,83.55
2023-12-29T11:30:28.963Z,85.43
2023-12-29T11:33:46.063Z,84.97
2023-12-29T11:37:14.780Z,84.12
2023-12-29T11:41:18.321Z,84.12
2023-12-29T11:44:29.372Z,82.93
2023-12-29T11:47:45.493Z,82.34
2023-12-29T11:50:50.127Z,82.66
2023-12-29T11:53:56.960Z,81.26
2023-12-29T11:57:04.518Z,79.93
2023-12-29T12:00:19.214Z,79.35
2023-12-29T12:03:42.089Z,79.17
2023-12-29T12:07:04.999Z,79.09
2023-12-29T12:10:39.986Z,77.25
2023-12-29T12:13:50.468Z,76.50
2023-12-29T12:17:12.085Z,75.71
2023-12-29T12:20:29.906Z,75.23
2023-12-29T12:23:49.023Z,74.38
2023-12-29T12:27:18.128Z,72.86
2023-12-29T12:30:22.324Z,72.63
2023-12-29T12:33:29.727Z,72.59
2023-12-29T12:36:50.795Z,72.03
2023-12-29T12:39:55.696Z,73.21
2023-12-29T12:43:19.644Z,73.48
2023-12-29T12:46:47.912Z,74.59
2023-12-29T12:50:02.942Z,75.14
2023-12-29T12:53:22.399Z,75.45
2023-12-29T12:56:45.996Z,75.04
2023-12-29T13:00:04.129Z,77.74
2023-12-29T13:03:24.837Z,75.46
2023-12-29T13:06:40.425Z,75.93
2023-12-29T13:09:52.126Z,76.39
2023-12-29T13:13:02.348Z,75.40
2023-12-29T13:16:09.728Z,75.00
2023-12-29T13:19:21.169Z,75.63
2023-12-29T13:22:34.636Z,75.90
2023-12-29T13:25:41.624Z,76.48
2023-12-29T13:28:49.089Z,76.58
2023-12-29T13:32:38.861Z,77.17
2023-12-29T13:36:07.866Z,77.39
2023-12-29T13:39:49.138Z,78.09
2023-12-29T13:43:03.583Z,77.49
2023-12-29T13:46:13.042Z,78.16
2023-12-29T13:49:27.141Z,77.49
2023-12-29T13:52:31.267Z,77.66
2023-12-29T13:55:44.641Z,77.54
2023-12-29T13:59:10.635Z,77.91
2023-12-29T14:02:32.919Z,77.45
2023-12-29T14:05:53.220Z,78.11
2023-12-29T14:09:07.904Z,78.19
2023-12-29T14:12:32.509Z,78.43
2023-12-29T14:15:54.542Z,78.42
2023-12-29T14:19:18.643Z,78.44
2023-12-29T14:22:32.692Z,78.65
2023-12-29T14:25:56.655Z,79.12
2023-12-29T14:29:12.855Z,78.58
2023-12-29T14:32:19.225Z,79.00
2023-12-29T14:35:33.654Z,79.42
2023-12-29T14:38:37.870Z,79.68
2023-12-29T14:42:01.504Z,79.74
2023-12-29T14:45:23.702Z,79.78
2023-12-29T14:48:41.187Z,79.84
2023-12-29T14:51:58.457Z,79.61
2023-12-29T14:55:27.092Z,80.40
2023-12-29T14:58:50.060Z,79.82
2023-12-29T15:02:09.216Z,80.03
2023-12-29T15:05:12.413Z,80.68
2023-12-29T15:08:16.809Z,80.92
2023-12-29T15:11:27.097Z,81.13
2023-12-29T15:14:54.455Z,81.77
2023-12-29T15:18:16.080Z,82.58
2023-12-29T15:21:19.590Z,82.84
2023-12-29T15:24:35.670Z,82.88
2023-12-29T15:27:59.475Z,82.93
2023-12-29T15:31:17.775Z,83.30
2023-12-29T15:34:22.670Z,83.61
2023-12-29T15:37:30.547Z,84.02
2023-12-29T15:40:33.846Z,84.11
2023-12-29T15:43:38.213Z,84.36
2023-12-29T15:46:54.064Z,84.96
2023-12-29T15:49:57.676Z,85.25
2023-12-29T15:53:17.471Z,85.34
2023-12-29T15:56:57.333Z,84.90
2023-12-29T16:00:26.200Z,84.62
2023-12-29T16:03:45.286Z,84.93
2023-12-29T16:07:09.233Z,84.21
2023-12-29T16:10:32.608Z,84.44
2023-12-29T16:13:54.143Z,84.64
2023-12-29T16:17:04.249Z,84.69
2023-12-29T16:20:07.912Z,83.80
2023-12-29T16:23:12.797Z,83.85
2023-12-29T16:26:42.865Z,85.15
2023-12-29T16:29:57.126Z,85.84
2023-12-29T16:33:20.502Z,85.26
2023-12-29T16:36:31.393Z,85.30
2023-12-29T16:39:48.679Z,85.84
2023-12-29T16:42:57.058Z,86.06
2023-12-29T16:46:00.831Z,86.15
2023-12-29T16:49:15.481Z,85.47
2023-12-29T16:52:31.323Z,85.13
2023-12-29T16:56:01.394Z,85.22
2023-12-29T16:59:23.439Z,86.41
2023-12-29T17:02:42.663Z,86.02
2023-12-29T17:06:01.438Z,85.12
2023-12-29T17:09:28.237Z,84.94
2023-12-29T17:12:49.257Z,85.66
2023-12-29T17:16:06.539Z,85.39
2023-12-29T17:19:26.439Z,86.72
2023-12-29T17:22:52.041Z,86.76
2023-12-29T17:26:15.734Z,86.30
2023-12-29T17:29:38.694Z,86.30
2023-12-29T17:33:01.623Z,86.45
2023-12-29T17:36:16.657Z,86.56
2023-12-29T17:39:42.187Z,86.64
2023-12-29T17:43:05.214Z,87.61
2023-12-29T17:46:15.495Z,87.50
2023-12-29T17:49:35.277Z,86.86
2023-12-29T17:53:01.423Z,88.48
2023-12-29T17:56:09.015Z,87.83
2023-12-29T17:59:16.622Z,87.56
2023-12-29T18:02:37.834Z,87.94
2023-12-29T18:05:59.802Z,87.43
2023-12-29T18:09:14.742Z,87.18
2023-12-29T18:12:38.080Z,86.35
2023-12-29T18:16:08.077Z,86.65
2023-12-29T18:19:27.804Z,86.33
2023-12-29T18:22:35.533Z,86.83
2023-12-29T18:25:44.936Z,86.96
2023-12-29T18:28:48.396Z,87.53
2023-12-29T18:32:17.832Z,87.30
2023-12-29T18:35:17.064Z,88.30
2023-12-29T18:38:35.884Z,88.02
2023-12-29T18:41:52.237Z,88.17
2023-12-29T18:45:09.063Z,88.69
2023-12-29T18:48:38.600Z,89.34
2023-12-29T18:52:00.038Z,89.66
2023-12-29T18:55:17.505Z,90.17
2023-12-29T18:58:40.940Z,90.70
2023-12-29T19:02:01.277Z,90.45
2023-12-29T19:05:20.847Z,90.53
2023-12-29T19:08:37.258Z,89.84
2023-12-29T19:12:05.946Z,89.75
2023-12-29T19:15:30.285Z,89.09
2023-12-29T19:18:36.836Z,89.90
2023-12-29T19:21:44.286Z,89.80
2023-12-29T19:24:50.011Z,89.90
2023-12-29T19:28:14.099Z,89.76
2023-12-29T19:31:18.955Z,89.87
2023-12-29T19:34:22.099Z,90.03
2023-12-29T19:37:27.161Z,89.95
2023-12-29T19:40:37.938Z,89.27
2023-12-29T19:43:48.312Z,89.72
2023-12-29T19:46:52.445Z,89.47
2023-12-29T19:49:59.636Z,89.71
2023-12-29T19:53:15.897Z,90.28
2023-12-29T19:56:33.924Z,89.52
2023-12-29T19:59:54.278Z,90.13
2023-12-29T20:03:11.805Z,88.72
2023-12-29T20:06:31.113Z,88.65
2023-12-29T20:09:51.967Z,89.04
2023-12-29T20:13:15.713Z,89.47
2023-12-29T20:16:24.732Z,89.96
2023-12-29T20:19:29.185Z,89.50
2023-12-29T20:22:52.445Z,90.01
2023-12-29T20:26:02.886Z,89.61
2023-12-29T20:29:10.108Z,89.65
2023-12-29T20:32:21.083Z,90.00
2023-12-29T20:35:32.410Z,90.03
2023-12-29T20:38:39.580Z,90.03
2023-12-29T20:41:46.305Z,89.81
2023-12-29T20:44:58.181Z,90.00
2023-12-29T20:48:15.762Z,90.37
2023-12-29T20:51:28.058Z,90.44
2023-12-29T20:54:51.744Z,90.23
2023-12-29T20:58:14.590Z,89.98
2023-12-29T21:01:36.753Z,89.37
2023-12-29T21:04:40.500Z,89.30
2023-12-29T21:08:03.663Z,89.35
2023-12-29T21:11:41.685Z,89.37
2023-12-29T21:15:07.631Z,88.89
2023-12-29T21:18:23.823Z,90.14
2023-12-29T21:21:53.523Z,90.12
2023-12-29T21:25:10.656Z,89.89
2023-12-29T21:28:14.038Z,89.91
2023-12-29T21:31:21.913Z,90.38
2023-12-29T21:34:29.630Z,89.85
2023-12-29T21:37:50.313Z,89.56
2023-12-29T21:41:12.203Z,90.45
2023-12-29T21:44:36.911Z,90.68
2023-12-29T21:47:55.441Z,91.22
2023-12-29T21:51:12.708Z,90.85
2023-12-29T21:54:34.451Z,90.52
2023-12-29T21:58:03.177Z,90.17
2023-12-29T22:01:51.141Z,90.19
2023-12-29T22:05:12.955Z,90.57
2023-12-29T22:08:20.737Z,90.31
2023-12-29T22:11:31.223Z,90.04
2023-12-29T22:14:41.164Z,90.39
2023-12-29T22:18:07.462Z,91.13
2023-12-29T22:21:19.605Z,91.26
2023-12-29T22:24:29.102Z,90.84
2023-12-29T22:27:34.140Z,90.31
2023-12-29T22:30:58.327Z,90.57
2023-12-29T22:34:26.235Z,91.13
2023-12-29T22:37:42.467Z,89.74
2023-12-29T22:41:08.510Z,90.28
2023-12-29T22:44:30.293Z,89.78
2023-12-29T22:47:53.371Z,89.68
2023-12-29T22:51:19.318Z,90.09
2023-12-29T22:54:22.551Z,90.68
2023-12-29T22:57:46.443Z,89.90
2023-12-29T23:01:21.317Z,90.51
2023-12-29T23:04:43.175Z,89.86
2023-12-29T23:08:00.377Z,89.17
2023-12-29T23:11:21.408Z,88.65
2023-12-29T23:14:50.239Z,90.80
2023-12-29T23:18:16.156Z,90.11
2023-12-29T23:21:19.898Z,88.57
2023-12-29T23:24:30.082Z,88.65
2023-12-29T23:27:46.478Z,88.67
2023-12-29T23:31:24.342Z,88.16
2023-12-29T23:35:14.055Z,87.72
2023-12-29T23:38:28.065Z,87.92
2023-12-29T23:41:48.358Z,87.99
2023-12-29T23:45:11.447Z,87.79
2023-12-29T23:48:28.886Z,87.45
2023-12-29T23:51:52.248Z,88.21
2023-12-29T23:55:09.378Z,88.04
2023-12-29T23:58:29.282Z,87.73
